Wilson, KS (67490)

11:27 AM CDT on April 19, 2015 (GMT -0500)
Wilson | | Change Station
CLOSE
Current Station
Personal Weather Station
Location: Wilson, KS
Elevation: 1689 ft
Nearby Weather Stations

Elev 1689 ft 38.82 °N, 98.47 °W | Updated 58 seconds ago

Overcast
Overcast
52.3 °F
Feels Like 52.3 °F
N
11.1
Wind Variable Wind from NW
Gusts 17.9 mph

Today
High -- | Low -- °F
--% Chance of Precip.
Yesterday
High -- | Low -- °F
Precip. -- in
6:52 AM 8:14 PM
New Moon, 1% visible
Pressure 29.83 in
Visibility 10.0 miles
Clouds Overcast 1700 ft
Dew Point 43 °F
Humidity 71%
Rainfall 0.00 in
Snow Depth Not available.
UV 2 out of 12
Pollen 5.00 out of 12
Air Quality Not available.
Flu Activity Sporadic
METAR KRSL 191553Z AUTO 35021G28KT 10SM OVC017 12/09 A2983 RMK AO2 PK WND 34028/1532 SLP101 T01170089

More Conditions Fewer Conditions

Pressure 29.83 in
Visibility 10.0 miles
Clouds Overcast 1700 ft
Dew Point 43 °F
Humidity 71%
Rainfall 0.00 in
Snow Depth Not available.
UV 2 out of 12
Pollen 5.00 out of 12
Air Quality Not available.
Flu Activity Sporadic
METAR KRSL 191553Z AUTO 35021G28KT 10SM OVC017 12/09 A2983 RMK AO2 PK WND 34028/1532 SLP101 T01170089

More Conditions Fewer Conditions

10-Day Weather Forecast

Almanac

Astronomy

Apr. 19, 2015 Rise Set
Actual Time
Civil Twilight
Nautical Twilight
Astronomical Twilight
Moon
Length of Visible Light
Length of Day
Tomorrow will be .
, % of the Moon is Illuminated

Today's Extremes

State Highs State Lows

Community

WunderPhotos

Upload Photos

1,814,844 photos uploaded!

WunderBlogs® & News

Nearby

Air Quality

  Air Quality AQ Index Pollutant
Not available.

Snow Depth

Station Depth Elevation

Earthquake Activity

City Distance Mag. Time & Date
Minimum magnitude displayed is 2.5.

Coastal Water Temperatures

Place Temperature

Stations

Nearby Weather Stations

Station Location Temp. Windchill Dew Point Humidity Wind Precip. Elev Updated Type